createdAt,value
2022-12-18T00:01:36.612Z,-6.80
2022-12-18T00:04:09.024Z,-6.80
2022-12-18T00:06:36.673Z,-6.80
2022-12-18T00:09:04.284Z,-6.90
2022-12-18T00:11:32.029Z,-7.00
2022-12-18T00:14:00.322Z,-7.00
2022-12-18T00:16:28.563Z,-7.10
2022-12-18T00:18:57.435Z,-7.10
2022-12-18T00:21:24.366Z,-7.10
2022-12-18T00:23:52.258Z,-7.00
2022-12-18T00:26:27.834Z,-7.10
2022-12-18T00:28:56.641Z,-7.10
2022-12-18T00:31:25.570Z,-7.10
2022-12-18T00:33:56.139Z,-7.30
2022-12-18T00:36:26.248Z,-7.30
2022-12-18T00:38:55.172Z,-7.30
2022-12-18T00:41:41.667Z,-7.30
2022-12-18T00:44:10.512Z,-7.20
2022-12-18T00:46:37.351Z,-7.20
2022-12-18T00:49:05.082Z,-7.20
2022-12-18T00:51:31.877Z,-7.20
2022-12-18T00:53:58.799Z,-7.10
2022-12-18T00:56:25.997Z,-7.20
2022-12-18T00:58:53.325Z,-7.20
2022-12-18T01:01:20.965Z,-7.30
2022-12-18T01:03:47.857Z,-7.30
2022-12-18T01:06:16.108Z,-7.30
2022-12-18T01:08:43.327Z,-7.30
2022-12-18T01:11:12.841Z,-7.40
2022-12-18T01:13:41.063Z,-7.40
2022-12-18T01:16:09.885Z,-7.50
2022-12-18T01:18:36.983Z,-7.40
2022-12-18T01:21:08.614Z,-7.40
2022-12-18T01:23:36.142Z,-7.40
2022-12-18T01:26:11.959Z,-7.60
2022-12-18T01:28:40.933Z,-7.50
2022-12-18T01:31:20.141Z,-7.50
2022-12-18T01:33:47.139Z,-7.10
2022-12-18T01:36:28.245Z,-7.60
2022-12-18T01:38:56.349Z,-7.60
2022-12-18T01:41:25.955Z,-7.50
2022-12-18T01:43:58.449Z,-7.60
2022-12-18T01:46:26.364Z,-7.70
2022-12-18T01:49:02.124Z,-7.60
2022-12-18T01:51:31.805Z,-7.60
2022-12-18T01:54:00.313Z,-7.60
2022-12-18T01:56:27.406Z,-7.50
2022-12-18T01:59:00.624Z,-7.50
2022-12-18T02:01:28.345Z,-7.60
2022-12-18T02:03:55.542Z,-7.70
2022-12-18T02:06:40.826Z,-7.80
2022-12-18T02:09:32.856Z,-7.60
2022-12-18T02:12:17.472Z,-7.70
2022-12-18T02:15:01.352Z,-7.70
2022-12-18T02:17:57.717Z,-7.60
2022-12-18T02:20:34.363Z,-7.70
2022-12-18T02:23:02.192Z,-7.80
2022-12-18T02:25:56.933Z,-7.60
2022-12-18T02:28:26.968Z,-7.60
2022-12-18T02:30:57.435Z,-7.70
2022-12-18T02:33:26.578Z,-7.80
2022-12-18T02:35:56.501Z,-7.80
2022-12-18T02:38:24.811Z,-7.70
2022-12-18T02:40:54.076Z,-7.70
2022-12-18T02:43:21.009Z,-7.60
2022-12-18T02:45:51.651Z,-7.60
2022-12-18T02:48:24.941Z,-7.60
2022-12-18T02:51:12.020Z,-7.70
2022-12-18T02:53:46.990Z,-7.80
2022-12-18T02:56:37.613Z,-7.80
2022-12-18T02:59:14.856Z,-7.80
2022-12-18T03:01:59.981Z,-7.60
2022-12-18T03:04:35.023Z,-7.80
2022-12-18T03:07:06.189Z,-7.90
2022-12-18T03:09:41.897Z,-7.90
2022-12-18T03:12:33.431Z,-8.00
2022-12-18T03:15:15.981Z,-7.90
2022-12-18T03:17:49.988Z,-7.90
2022-12-18T03:20:21.587Z,-7.90
2022-12-18T03:22:52.269Z,-7.80
2022-12-18T03:25:20.652Z,-7.80
2022-12-18T03:27:52.188Z,-7.90
2022-12-18T03:30:20.030Z,-8.00
2022-12-18T03:33:20.681Z,-8.10
2022-12-18T03:35:47.677Z,-8.10
2022-12-18T03:38:15.080Z,-8.20
2022-12-18T03:41:09.357Z,-8.20
2022-12-18T03:44:00.556Z,-8.20
2022-12-18T03:46:46.376Z,-8.20
2022-12-18T03:49:20.736Z,-8.20
2022-12-18T03:52:02.411Z,-8.20
2022-12-18T03:54:30.224Z,-8.10
2022-12-18T03:57:04.730Z,-7.90
2022-12-18T03:59:32.990Z,-8.00
2022-12-18T04:02:02.307Z,-8.00
2022-12-18T04:04:31.239Z,-7.90
2022-12-18T04:06:59.227Z,-7.70
2022-12-18T04:09:27.262Z,-7.70
2022-12-18T04:11:54.187Z,-7.80
2022-12-18T04:14:21.224Z,-7.80
2022-12-18T04:16:48.200Z,-7.90
2022-12-18T04:19:15.134Z,-7.90
2022-12-18T04:21:41.971Z,-7.70
2022-12-18T04:24:09.375Z,-7.70
2022-12-18T04:26:36.104Z,-7.70
2022-12-18T04:29:02.987Z,-7.60
2022-12-18T04:31:29.804Z,-7.70
2022-12-18T04:33:56.561Z,-7.60
2022-12-18T04:36:23.287Z,-7.60
2022-12-18T04:38:50.222Z,-7.60
2022-12-18T04:41:17.080Z,-7.70
2022-12-18T04:43:43.801Z,-7.70
2022-12-18T04:46:10.775Z,-7.60
2022-12-18T04:48:38.219Z,-7.70
2022-12-18T04:51:06.139Z,-7.70
2022-12-18T04:53:33.816Z,-7.70
2022-12-18T04:56:09.817Z,-7.70
2022-12-18T04:58:37.616Z,-7.70
2022-12-18T05:01:05.053Z,-7.70
2022-12-18T05:03:31.967Z,-7.80
2022-12-18T05:05:58.758Z,-7.80
2022-12-18T05:08:25.795Z,-7.90
2022-12-18T05:11:04.923Z,-8.00
2022-12-18T05:13:33.429Z,-8.00
2022-12-18T05:16:00.456Z,-7.80
2022-12-18T05:18:28.077Z,-7.70
2022-12-18T05:20:55.900Z,-7.70
2022-12-18T05:23:24.509Z,-7.70
2022-12-18T05:26:00.578Z,-7.80
2022-12-18T05:28:30.444Z,-7.90
2022-12-18T05:30:59.711Z,-8.00
2022-12-18T05:33:29.738Z,-8.00
2022-12-18T05:35:59.115Z,-8.10
2022-12-18T05:38:27.779Z,-8.20
2022-12-18T05:40:55.066Z,-8.20
2022-12-18T05:43:23.386Z,-8.20
2022-12-18T05:45:51.159Z,-8.20
2022-12-18T05:48:18.602Z,-8.20
2022-12-18T05:50:47.071Z,-8.10
2022-12-18T05:53:15.971Z,-8.10
2022-12-18T05:55:44.505Z,-8.10
2022-12-18T05:58:13.216Z,-8.00
2022-12-18T06:00:42.600Z,-8.00
2022-12-18T06:03:11.038Z,-7.80
2022-12-18T06:05:42.810Z,-7.90
2022-12-18T06:08:10.052Z,-7.80
2022-12-18T06:10:37.285Z,-7.90
2022-12-18T06:13:04.771Z,-7.90
2022-12-18T06:15:31.591Z,-8.00
2022-12-18T06:17:58.496Z,-7.90
2022-12-18T06:20:27.970Z,-8.10
2022-12-18T06:22:59.507Z,-8.10
2022-12-18T06:25:26.341Z,-8.10
2022-12-18T06:27:53.188Z,-8.10
2022-12-18T06:30:21.037Z,-8.20
2022-12-18T06:32:53.165Z,-8.20
2022-12-18T06:35:23.581Z,-8.20
2022-12-18T06:37:50.450Z,-8.20
2022-12-18T06:40:17.660Z,-8.10
2022-12-18T06:42:44.548Z,-7.90
2022-12-18T06:45:12.359Z,-7.90
2022-12-18T06:47:39.140Z,-8.00
2022-12-18T06:50:06.698Z,-8.00
2022-12-18T06:52:34.591Z,-8.00
2022-12-18T06:55:01.500Z,-8.00
2022-12-18T06:57:28.496Z,-8.00
2022-12-18T06:59:55.523Z,-7.90
2022-12-18T07:02:22.361Z,-8.00
2022-12-18T07:04:49.252Z,-8.10
2022-12-18T07:07:16.244Z,-8.10
2022-12-18T07:09:43.264Z,-8.00
2022-12-18T07:12:10.835Z,-8.10
2022-12-18T07:14:37.598Z,-8.10
2022-12-18T07:17:04.618Z,-8.10
2022-12-18T07:19:32.632Z,-8.00
2022-12-18T07:21:59.399Z,-7.90
2022-12-18T07:24:26.123Z,-7.90
2022-12-18T07:26:53.003Z,-7.80
2022-12-18T07:29:19.774Z,-7.90
2022-12-18T07:31:46.996Z,-7.80
2022-12-18T07:34:16.339Z,-7.90
2022-12-18T07:36:43.428Z,-7.80
2022-12-18T07:39:12.372Z,-7.90
2022-12-18T07:41:43.817Z,-7.90
2022-12-18T07:44:14.058Z,-7.80
2022-12-18T07:46:41.297Z,-7.80
2022-12-18T07:49:08.178Z,-7.80
2022-12-18T07:51:34.956Z,-7.80
2022-12-18T07:54:02.059Z,-7.90
2022-12-18T07:56:30.820Z,-7.80
2022-12-18T07:59:01.147Z,-7.70
2022-12-18T08:01:28.736Z,-7.80
2022-12-18T08:03:56.196Z,-7.70
2022-12-18T08:06:24.230Z,-7.70
2022-12-18T08:08:56.403Z,-7.50
2022-12-18T08:11:24.645Z,-7.50
2022-12-18T08:13:51.901Z,-7.50
2022-12-18T08:16:19.137Z,-7.50
2022-12-18T08:18:46.758Z,-7.40
2022-12-18T08:21:32.752Z,-7.40
2022-12-18T08:24:02.062Z,-7.30
2022-12-18T08:26:30.936Z,-7.30
2022-12-18T08:28:59.815Z,-7.20
2022-12-18T08:31:28.877Z,-7.10
2022-12-18T08:33:56.167Z,-7.10
2022-12-18T08:36:24.881Z,-7.00
2022-12-18T08:38:52.509Z,-6.90
2022-12-18T08:41:20.412Z,-6.90
2022-12-18T08:44:06.368Z,-6.70
2022-12-18T08:46:42.442Z,-6.70
2022-12-18T08:49:10.964Z,-6.70
2022-12-18T08:51:38.433Z,-6.70
2022-12-18T08:54:06.815Z,-6.60
2022-12-18T08:56:34.294Z,-6.60
2022-12-18T08:59:01.338Z,-6.60
2022-12-18T09:01:28.625Z,-6.50
2022-12-18T09:03:55.645Z,-6.40
2022-12-18T09:06:23.766Z,-6.30
2022-12-18T09:08:50.876Z,-6.30
2022-12-18T09:11:23.830Z,-6.20
2022-12-18T09:13:51.332Z,-6.10
2022-12-18T09:16:18.762Z,-6.00
2022-12-18T09:18:46.001Z,-5.90
2022-12-18T09:21:20.845Z,-5.80
2022-12-18T09:23:51.951Z,-5.80
2022-12-18T09:26:18.859Z,-5.70
2022-12-18T09:28:45.891Z,-5.50
2022-12-18T09:31:14.116Z,-5.40
2022-12-18T09:33:41.126Z,-5.30
2022-12-18T09:36:10.597Z,-5.20
2022-12-18T09:38:37.827Z,-5.10
2022-12-18T09:41:42.796Z,-5.10
2022-12-18T09:44:25.119Z,-5.00
2022-12-18T09:47:04.875Z,-5.10
2022-12-18T09:49:35.490Z,-5.00
2022-12-18T09:52:10.306Z,-4.90
2022-12-18T09:54:41.275Z,-4.80
2022-12-18T09:57:16.564Z,-4.70
2022-12-18T09:59:47.337Z,-4.60
2022-12-18T10:02:23.834Z,-4.60
2022-12-18T10:05:07.858Z,-4.60
2022-12-18T10:07:55.748Z,-4.60
2022-12-18T10:10:48.608Z,-4.50
2022-12-18T10:13:33.342Z,-4.30
2022-12-18T10:16:22.314Z,-4.20
2022-12-18T10:19:12.556Z,-4.10
2022-12-18T10:22:01.106Z,-4.10
2022-12-18T10:24:53.593Z,-3.90
2022-12-18T10:27:25.472Z,-3.70
2022-12-18T10:29:52.556Z,-3.60
2022-12-18T10:32:22.234Z,-3.40
2022-12-18T10:34:58.188Z,-3.30
2022-12-18T10:37:29.496Z,-3.20
2022-12-18T10:40:21.466Z,-3.00
2022-12-18T10:43:13.164Z,-3.00
2022-12-18T10:45:40.449Z,-2.70
2022-12-18T10:48:20.361Z,-2.40
2022-12-18T10:53:38.508Z,-2.00
2022-12-18T10:56:07.438Z,-1.80
2022-12-18T10:58:36.982Z,-1.70
2022-12-18T11:01:11.182Z,-1.60
2022-12-18T11:03:52.491Z,-1.50
2022-12-18T11:06:25.403Z,-1.40
2022-12-18T11:09:22.194Z,-1.30
2022-12-18T11:11:57.738Z,-1.20
2022-12-18T11:14:34.695Z,-1.10
2022-12-18T11:17:24.856Z,-1.20
2022-12-18T11:19:55.520Z,-1.30
2022-12-18T11:22:28.972Z,-1.30
2022-12-18T11:25:34.607Z,-1.30
2022-12-18T11:28:23.664Z,-1.20
2022-12-18T11:30:50.744Z,-1.30
2022-12-18T11:33:22.652Z,-1.10
2022-12-18T11:36:03.777Z,-1.10
2022-12-18T11:38:41.097Z,-1.00
2022-12-18T11:41:08.084Z,-1.00
2022-12-18T11:43:59.140Z,-1.00
2022-12-18T11:46:48.871Z,-1.00
2022-12-18T11:49:21.055Z,-1.00
2022-12-18T11:51:54.066Z,-1.00
2022-12-18T11:54:20.984Z,-1.00
2022-12-18T11:57:05.056Z,-0.80
2022-12-18T11:59:53.571Z,-0.80
2022-12-18T12:03:02.342Z,-0.80
2022-12-18T12:05:55.681Z,-0.80
2022-12-18T12:08:35.375Z,-0.90
2022-12-18T12:11:18.218Z,-0.90
2022-12-18T12:14:10.918Z,-0.80
2022-12-18T12:17:07.624Z,-0.80
2022-12-18T12:19:58.488Z,-0.90
2022-12-18T12:22:40.929Z,-0.90
2022-12-18T12:25:36.211Z,-0.90
2022-12-18T12:28:30.208Z,-0.90
2022-12-18T12:31:09.098Z,-1.00
2022-12-18T12:34:03.483Z,-0.90
2022-12-18T12:36:55.419Z,-0.90
2022-12-18T12:39:28.252Z,-0.90
2022-12-18T12:42:14.507Z,-0.80
2022-12-18T12:44:51.297Z,-0.80
2022-12-18T12:47:37.356Z,-0.70
2022-12-18T12:50:13.264Z,-0.70
2022-12-18T12:53:02.543Z,-0.70
2022-12-18T12:55:31.327Z,-0.70
2022-12-18T12:58:24.161Z,-0.60
2022-12-18T13:01:09.860Z,-0.60
2022-12-18T13:03:54.673Z,-0.50
2022-12-18T13:06:43.001Z,-0.40
2022-12-18T13:09:11.821Z,-0.50
2022-12-18T13:12:01.666Z,-0.50
2022-12-18T13:14:35.919Z,-0.50
2022-12-18T13:17:21.273Z,-0.50
2022-12-18T13:19:53.561Z,-0.50
2022-12-18T13:22:26.015Z,-0.50
2022-12-18T13:24:52.849Z,-0.50
2022-12-18T13:27:45.372Z,-0.50
2022-12-18T13:30:32.885Z,-0.40
2022-12-18T13:33:14.965Z,-0.30
2022-12-18T13:35:46.905Z,-0.30
2022-12-18T13:38:39.103Z,-0.30
2022-12-18T13:41:28.036Z,-0.30
2022-12-18T13:44:23.321Z,-0.40
2022-12-18T13:46:51.619Z,-0.30
2022-12-18T13:49:38.732Z,-0.40
2022-12-18T13:52:21.985Z,-0.40
2022-12-18T13:54:53.538Z,-0.40
2022-12-18T13:57:31.976Z,-0.40
2022-12-18T13:59:59.929Z,-0.40
2022-12-18T14:02:28.852Z,-0.40
2022-12-18T14:04:56.558Z,-0.40
2022-12-18T14:07:26.388Z,-0.50
2022-12-18T14:10:12.611Z,-0.50
2022-12-18T14:13:02.215Z,-0.50
2022-12-18T14:15:45.374Z,-0.50
2022-12-18T14:18:23.214Z,-0.50
2022-12-18T14:21:00.798Z,-0.50
2022-12-18T14:23:35.834Z,-0.40
2022-12-18T14:26:06.382Z,-0.50
2022-12-18T14:28:33.292Z,-0.40
2022-12-18T14:31:00.619Z,-0.40
2022-12-18T14:33:29.745Z,-0.40
2022-12-18T14:36:05.391Z,-0.40
2022-12-18T14:38:32.516Z,-0.40
2022-12-18T14:41:02.472Z,-0.30
2022-12-18T14:43:38.304Z,-0.40
2022-12-18T14:46:26.315Z,-0.50
2022-12-18T14:48:54.087Z,-0.50
2022-12-18T14:51:27.011Z,-0.50
2022-12-18T14:54:01.480Z,-0.20
2022-12-18T14:56:31.402Z,-0.20
2022-12-18T14:59:02.967Z,-0.30
2022-12-18T15:01:32.399Z,-0.20
2022-12-18T15:04:00.458Z,-0.30
2022-12-18T15:06:34.276Z,-0.20
2022-12-18T15:09:04.200Z,-0.30
2022-12-18T15:11:45.135Z,-0.40
2022-12-18T15:14:33.018Z,-0.30
2022-12-18T15:17:02.061Z,-0.30
2022-12-18T15:19:43.829Z,-0.10
2022-12-18T15:22:28.274Z,-0.10
2022-12-18T15:24:57.912Z,-0.10
2022-12-18T15:27:35.805Z,-0.20
2022-12-18T15:30:10.262Z,0.00
2022-12-18T15:32:42.747Z,0.00
2022-12-18T15:35:12.548Z,0.10
2022-12-18T15:37:39.387Z,0.00
2022-12-18T15:40:08.869Z,0.00
2022-12-18T15:42:54.286Z,0.00
2022-12-18T15:45:21.066Z,0.00
2022-12-18T15:47:50.690Z,0.00
2022-12-18T15:50:17.577Z,0.10
2022-12-18T15:52:47.214Z,0.10
2022-12-18T15:55:39.713Z,0.30
2022-12-18T15:58:08.334Z,0.20
2022-12-18T16:00:37.193Z,0.20
2022-12-18T16:03:05.317Z,0.10
2022-12-18T16:05:33.146Z,0.20
2022-12-18T16:08:00.044Z,0.20
2022-12-18T16:10:27.899Z,0.10
2022-12-18T16:12:55.005Z,0.10
2022-12-18T16:15:24.717Z,0.10
2022-12-18T16:17:52.903Z,0.10
2022-12-18T16:20:22.876Z,0.10
2022-12-18T16:22:50.403Z,0.10
2022-12-18T16:25:19.353Z,0.00
2022-12-18T16:27:46.300Z,0.00
2022-12-18T16:30:21.533Z,0.00
2022-12-18T16:32:48.900Z,-0.10
2022-12-18T16:35:17.532Z,0.00
2022-12-18T16:37:45.049Z,0.00
2022-12-18T16:40:15.496Z,0.10
2022-12-18T16:42:44.456Z,0.10
2022-12-18T16:45:14.849Z,0.10
2022-12-18T16:47:41.804Z,0.10
2022-12-18T16:50:09.922Z,0.10
2022-12-18T16:52:37.038Z,0.20
2022-12-18T16:55:04.394Z,0.10
2022-12-18T16:57:31.207Z,0.10
2022-12-18T17:00:04.384Z,0.10
2022-12-18T17:02:31.886Z,0.10
2022-12-18T17:04:59.633Z,0.20
2022-12-18T17:07:28.260Z,0.20
2022-12-18T17:09:55.665Z,0.20
2022-12-18T17:12:23.209Z,0.20
2022-12-18T17:14:50.590Z,0.20
2022-12-18T17:17:22.233Z,0.30
2022-12-18T17:19:50.168Z,0.30
2022-12-18T17:22:17.005Z,0.30
2022-12-18T17:24:43.936Z,0.30
2022-12-18T17:27:10.809Z,0.30
2022-12-18T17:29:42.493Z,0.30
2022-12-18T17:32:13.795Z,0.40
2022-12-18T17:34:40.856Z,0.40
2022-12-18T17:37:08.071Z,0.40
2022-12-18T17:39:35.111Z,0.40
2022-12-18T17:42:02.060Z,0.40
2022-12-18T17:44:29.315Z,0.40
2022-12-18T17:46:56.555Z,0.50
2022-12-18T17:49:23.584Z,0.40
2022-12-18T17:51:51.559Z,0.40
2022-12-18T17:54:19.154Z,0.40
2022-12-18T17:56:46.302Z,0.50
2022-12-18T17:59:13.350Z,0.40
2022-12-18T18:01:44.423Z,0.40
2022-12-18T18:04:12.258Z,0.30
2022-12-18T18:06:39.605Z,0.30
2022-12-18T18:09:09.957Z,0.40
2022-12-18T18:12:05.815Z,0.40
2022-12-18T18:14:33.549Z,0.50
2022-12-18T18:17:04.515Z,0.40
2022-12-18T18:19:32.399Z,0.40
2022-12-18T18:21:59.369Z,0.40
2022-12-18T18:24:26.370Z,0.30
2022-12-18T18:26:56.605Z,0.30
2022-12-18T18:29:26.908Z,0.30
2022-12-18T18:31:55.155Z,0.20
2022-12-18T18:34:24.712Z,0.20
2022-12-18T18:36:52.007Z,0.30
2022-12-18T18:39:19.694Z,0.30
2022-12-18T18:41:47.790Z,0.20
2022-12-18T18:44:16.573Z,0.20
2022-12-18T18:46:44.207Z,0.20
2022-12-18T18:49:12.040Z,0.10
2022-12-18T18:51:39.024Z,0.10
2022-12-18T18:54:06.424Z,0.00
2022-12-18T18:59:30.162Z,0.00
2022-12-18T19:02:00.047Z,0.00
2022-12-18T19:04:32.177Z,-0.10
2022-12-18T19:06:59.119Z,-0.20
2022-12-18T19:09:27.414Z,-0.20
2022-12-18T19:12:14.537Z,-0.20
2022-12-18T19:14:41.647Z,-0.30
2022-12-18T19:17:09.290Z,-0.40
2022-12-18T19:19:37.012Z,-0.30
2022-12-18T19:22:07.841Z,-0.40
2022-12-18T19:24:35.921Z,-0.40
2022-12-18T19:27:02.774Z,-0.50
2022-12-18T19:29:29.560Z,-0.50
2022-12-18T19:31:56.655Z,-0.50
2022-12-18T19:34:23.492Z,-0.50
2022-12-18T19:36:53.972Z,-0.50
2022-12-18T19:39:26.287Z,-0.50
2022-12-18T19:41:53.281Z,-0.50
2022-12-18T19:44:21.152Z,-0.50
2022-12-18T19:46:52.123Z,-0.60
2022-12-18T19:49:19.048Z,-0.60
2022-12-18T19:51:46.269Z,-0.70
2022-12-18T19:54:16.929Z,-0.60
2022-12-18T19:56:46.070Z,-0.60
2022-12-18T19:59:13.370Z,-0.60
2022-12-18T20:01:40.790Z,-0.70
2022-12-18T20:04:08.148Z,-0.70
2022-12-18T20:06:50.710Z,-0.70
2022-12-18T20:09:18.442Z,-0.70
2022-12-18T20:11:47.050Z,-0.80
2022-12-18T20:14:18.851Z,-0.80
2022-12-18T20:16:52.479Z,-0.80
2022-12-18T20:19:20.833Z,-0.80
2022-12-18T20:21:48.407Z,-0.80
2022-12-18T20:24:15.346Z,-0.80
2022-12-18T20:26:42.499Z,-0.90
2022-12-18T20:29:09.359Z,-0.80
2022-12-18T20:31:36.533Z,-0.80
2022-12-18T20:34:04.971Z,-0.80
2022-12-18T20:36:34.221Z,-0.80
2022-12-18T20:39:03.988Z,-0.80
2022-12-18T20:41:38.029Z,-0.90
2022-12-18T20:44:23.414Z,-0.80
2022-12-18T20:46:57.921Z,-0.80
2022-12-18T20:49:27.027Z,-0.80
2022-12-18T20:51:56.444Z,-0.80
2022-12-18T20:54:26.766Z,-0.90
2022-12-18T20:56:54.327Z,-0.80
2022-12-18T20:59:23.291Z,-0.80
2022-12-18T21:01:52.506Z,-0.80
2022-12-18T21:04:19.925Z,-0.90
2022-12-18T21:06:52.891Z,-0.80
2022-12-18T21:09:23.053Z,-0.80
2022-12-18T21:12:08.637Z,-0.80
2022-12-18T21:14:38.142Z,-0.80
2022-12-18T21:17:05.287Z,-0.80
2022-12-18T21:19:34.798Z,-0.80
2022-12-18T21:22:02.256Z,-0.90
2022-12-18T21:24:32.661Z,-0.80
2022-12-18T21:27:00.458Z,-0.80
2022-12-18T21:29:27.761Z,-0.70
2022-12-18T21:31:55.921Z,-0.70
2022-12-18T21:34:26.593Z,-0.70
2022-12-18T21:36:54.725Z,-0.70
2022-12-18T21:39:23.020Z,-0.60
2022-12-18T21:42:09.873Z,-0.60
2022-12-18T21:44:41.931Z,-0.50
2022-12-18T21:47:17.692Z,-0.60
2022-12-18T21:49:51.462Z,-0.50
2022-12-18T21:52:18.430Z,-0.50
2022-12-18T21:54:45.337Z,-0.50
2022-12-18T21:57:15.452Z,-0.50
2022-12-18T21:59:43.661Z,-0.50
2022-12-18T22:02:20.349Z,-0.50
2022-12-18T22:04:48.246Z,-0.40
2022-12-18T22:07:18.681Z,-0.50
2022-12-18T22:09:45.650Z,-0.40
2022-12-18T22:12:34.157Z,-0.40
2022-12-18T22:15:01.564Z,-0.40
2022-12-18T22:17:28.649Z,-0.40
2022-12-18T22:19:57.083Z,-0.30
2022-12-18T22:22:26.673Z,-0.30
2022-12-18T22:24:53.899Z,-0.30
2022-12-18T22:27:20.664Z,-0.20
2022-12-18T22:30:05.948Z,-0.20
2022-12-18T22:32:41.922Z,-0.10
2022-12-18T22:35:15.429Z,-0.10
2022-12-18T22:37:43.192Z,-0.10
2022-12-18T22:40:23.716Z,-0.10
2022-12-18T22:42:51.330Z,0.00
2022-12-18T22:45:24.990Z,-0.10
2022-12-18T22:47:55.882Z,0.00
2022-12-18T22:50:23.576Z,0.00
2022-12-18T22:52:53.922Z,0.00
2022-12-18T22:55:20.753Z,0.00
2022-12-18T22:57:49.055Z,0.10
2022-12-18T23:00:20.137Z,0.10
2022-12-18T23:02:57.551Z,0.10
2022-12-18T23:05:27.223Z,0.10
2022-12-18T23:07:53.983Z,0.10
2022-12-18T23:10:20.951Z,0.10
2022-12-18T23:12:48.075Z,0.10
2022-12-18T23:15:15.578Z,0.10
2022-12-18T23:17:44.969Z,0.10
2022-12-18T23:20:12.079Z,0.10
2022-12-18T23:22:39.045Z,0.10
2022-12-18T23:25:07.026Z,0.20
2022-12-18T23:27:34.231Z,0.20
2022-12-18T23:30:01.018Z,0.20
2022-12-18T23:32:27.775Z,0.20
2022-12-18T23:34:54.744Z,0.20
2022-12-18T23:37:49.757Z,0.30
2022-12-18T23:40:09.184Z,0.30
2022-12-18T23:42:36.354Z,0.30
2022-12-18T23:45:03.912Z,0.30
2022-12-18T23:47:36.411Z,0.30
2022-12-18T23:50:07.850Z,0.30
2022-12-18T23:52:35.157Z,0.40
2022-12-18T23:55:02.051Z,0.40
2022-12-18T23:57:29.027Z,0.30
2022-12-18T23:59:55.853Z,0.30
